createdAt,value
2022-12-31T00:05:14.767Z,42.06
2022-12-31T00:15:16.166Z,41.84
2022-12-31T00:25:17.724Z,42.16
2022-12-31T00:35:19.238Z,41.93
2022-12-31T00:45:20.796Z,41.83
2022-12-31T00:55:22.251Z,42.17
2022-12-31T01:05:23.847Z,42.07
2022-12-31T01:15:25.418Z,42.00
2022-12-31T01:25:26.939Z,41.94
2022-12-31T01:35:28.452Z,42.25
2022-12-31T01:45:29.818Z,42.57
2022-12-31T01:55:57.343Z,42.12
2022-12-31T02:06:14.460Z,41.80
2022-12-31T02:16:23.871Z,41.94
2022-12-31T02:26:31.210Z,41.69
2022-12-31T02:36:34.606Z,41.72
2022-12-31T02:46:42.591Z,41.83
2022-12-31T02:56:59.133Z,41.72
2022-12-31T03:07:11.040Z,41.51
2022-12-31T03:17:12.427Z,41.57
2022-12-31T03:27:13.945Z,41.68
2022-12-31T03:37:15.464Z,41.39
2022-12-31T03:47:17.024Z,41.50
2022-12-31T03:57:18.565Z,41.38
2022-12-31T04:07:20.098Z,41.55
2022-12-31T04:17:21.629Z,41.69
2022-12-31T04:27:23.008Z,41.47
2022-12-31T04:37:24.523Z,41.63
2022-12-31T04:47:26.074Z,41.46
2022-12-31T04:57:27.624Z,41.35
2022-12-31T05:07:29.015Z,41.39
2022-12-31T05:17:30.402Z,41.25
2022-12-31T05:27:31.931Z,40.86
2022-12-31T05:37:33.407Z,40.95
2022-12-31T05:47:34.807Z,40.71
2022-12-31T05:57:36.213Z,40.27
2022-12-31T06:07:37.579Z,40.11
2022-12-31T06:17:38.995Z,39.92
2022-12-31T06:27:40.387Z,39.78
2022-12-31T06:37:41.838Z,39.82
2022-12-31T06:47:43.244Z,39.80
2022-12-31T06:57:44.761Z,39.94
2022-12-31T07:08:16.607Z,40.02
2022-12-31T07:19:13.754Z,40.16
2022-12-31T07:29:53.779Z,39.92
2022-12-31T07:40:17.086Z,39.96
2022-12-31T07:50:18.998Z,39.96
2022-12-31T08:00:20.778Z,40.54
2022-12-31T08:10:48.485Z,40.20
2022-12-31T08:21:04.987Z,40.33
2022-12-31T08:31:31.493Z,40.18
2022-12-31T08:41:42.859Z,39.90
2022-12-31T08:51:44.966Z,40.19
2022-12-31T09:02:21.747Z,40.28
2022-12-31T09:12:28.744Z,40.21
2022-12-31T09:22:30.433Z,40.37
2022-12-31T09:33:08.920Z,40.20
2022-12-31T09:43:14.770Z,40.25
2022-12-31T09:53:34.402Z,40.18
2022-12-31T10:03:57.086Z,40.15
2022-12-31T10:14:22.921Z,40.26
2022-12-31T10:24:45.893Z,40.30
2022-12-31T10:34:54.490Z,40.31
2022-12-31T10:44:55.842Z,40.42
2022-12-31T10:55:34.491Z,40.34
2022-12-31T11:05:54.101Z,40.20
2022-12-31T11:16:29.483Z,40.31
2022-12-31T11:26:50.080Z,40.31
2022-12-31T11:37:08.833Z,40.43
2022-12-31T11:47:28.911Z,40.44
2022-12-31T11:57:30.133Z,40.21
2022-12-31T12:07:31.839Z,40.44
2022-12-31T12:17:34.209Z,40.41
2022-12-31T12:27:36.076Z,40.42
2022-12-31T12:37:37.489Z,40.50
2022-12-31T12:47:41.273Z,40.74
2022-12-31T12:57:53.324Z,40.58
2022-12-31T13:08:19.383Z,40.55
2022-12-31T13:18:51.958Z,40.66
2022-12-31T13:28:54.691Z,40.40
2022-12-31T13:38:58.048Z,40.56
2022-12-31T13:49:04.908Z,40.43
2022-12-31T13:59:20.119Z,40.39
2022-12-31T14:09:32.642Z,40.45
2022-12-31T14:20:24.304Z,40.42
2022-12-31T14:30:27.967Z,40.56
2022-12-31T14:41:06.718Z,40.58
2022-12-31T14:51:08.283Z,40.89
2022-12-31T15:01:15.693Z,40.86
2022-12-31T15:11:20.018Z,40.76
2022-12-31T15:21:39.589Z,41.01
2022-12-31T15:31:44.955Z,40.92
2022-12-31T15:42:18.631Z,40.99
2022-12-31T15:52:20.606Z,41.09
2022-12-31T16:02:24.282Z,41.15
2022-12-31T16:12:32.750Z,40.96
2022-12-31T16:22:37.864Z,41.18
2022-12-31T16:32:39.251Z,41.56
2022-12-31T16:42:44.241Z,41.55
2022-12-31T16:52:47.308Z,41.44
2022-12-31T17:02:56.073Z,41.45
2022-12-31T17:23:28.998Z,41.39
2022-12-31T17:33:30.728Z,41.50
2022-12-31T17:43:36.830Z,41.49
2022-12-31T17:53:38.375Z,41.57
2022-12-31T18:03:39.800Z,41.56
2022-12-31T18:13:41.200Z,41.74
2022-12-31T18:23:46.109Z,41.90
2022-12-31T18:33:47.981Z,41.80
2022-12-31T18:43:49.890Z,41.76
2022-12-31T18:53:51.418Z,41.79
2022-12-31T19:04:03.474Z,42.06
2022-12-31T19:14:22.924Z,41.99
2022-12-31T19:24:26.401Z,41.96
2022-12-31T19:34:27.927Z,41.97
2022-12-31T19:44:29.464Z,42.10
2022-12-31T19:54:31.007Z,42.03
2022-12-31T20:04:32.524Z,42.09
2022-12-31T20:14:33.974Z,41.99
2022-12-31T20:24:35.354Z,42.14
2022-12-31T20:34:36.761Z,42.01
2022-12-31T20:44:38.183Z,42.08
2022-12-31T20:54:39.750Z,42.08
2022-12-31T21:04:41.350Z,41.99
2022-12-31T21:14:44.879Z,41.92
2022-12-31T21:24:46.482Z,41.75
2022-12-31T21:35:06.437Z,41.72
2022-12-31T21:45:10.290Z,41.79
2022-12-31T21:55:30.429Z,41.76
2022-12-31T22:05:31.939Z,41.79
2022-12-31T22:15:33.374Z,41.74
2022-12-31T22:25:35.393Z,41.81
2022-12-31T22:35:36.778Z,41.88
2022-12-31T22:45:38.161Z,41.73
2022-12-31T22:55:39.552Z,41.83
2022-12-31T23:05:41.495Z,41.97
2022-12-31T23:16:03.589Z,41.96
2022-12-31T23:26:06.765Z,41.93
2022-12-31T23:36:08.433Z,41.97
2022-12-31T23:46:10.241Z,42.03
2022-12-31T23:56:23.294Z,41.97
